Aeroporto :
LOGIN :

Iscrizione | Disclaimer

   EN    FR    IT 

 










Sommario :    VFR   VFR Marginale   IFR   IFR Intensivo   IFR Molto Intensivo
Visibilità : 
Base nubi : 
>= 8 km
>= 3000ft
5 / 8 km
1000 / 3000 ft
1500m / 5 km
500 / 1000 ft
800 / 1500m
200 / 500 ft
< 800m
< 200 ft
Simboli :   Temporali  Nebbia  Neve Forte  Precipitazioni Forti  Vento > 20 kt
SIGMETs :   Varie  Temporali  Ghiacco  Turbolenza  Onda orograficha  Ceneri Vulcaniche






- Altitudine del aeroporto : 141 ft
- Codice IATA : SKS


EKSP - Srydstrup Vojens

ULTIMO METAR :
  • 032020Z 23006KT CAVOK 01/M01 Q1016 RMK FEW050

METARs OBSOLETI :
  • 031950Z 23004KT CAVOK 01/M01 Q1015
  • 031920Z 27004KT CAVOK 01/M01 Q1015 RMK FEW050
  • 031850Z 25005KT 9999 FEW020 01/M01 Q1015
  • 031820Z 23007KT 9999 FEW015 01/M01 Q1015
  • 031750Z 24012KT 9999 FEW015 02/00 Q1014

TAF TAF EKSP
Valido dal 03 a 21 ore il 04 a 21 ore UTC


032019Z 0321/0421 23005KT 9999 SCT030
TEMPO 0321/0409 4000 -SHRASNGS SCT020CB
BECMG 0406/0409 23014KT
TEMPO 0409/0415 7000 -SHRA SCT020CB



MetMap, La meteo Aeronautica in un colpo d'occhio ! - Copyright ORBIFLY Dicembre 2007 - Disclaimer

ORBIFLY MET'MAP TEAM :

Programmazione e sviluppo : Alexandra Zaïnal
Concezione : Baudouin d'Aumeries
Aiuto per la programmazione : Marc-Olivier Méhu
Supporto tecnico e logistico : Manuel Goepfert
Aiuto per la traduzione : Arnaldo La Scala

Contatto : metmap@orbifly.com




FONTI E CREDITI :

   NOAA